Time;durP1;ratioP1;P1;durP2;ratioP2;P2;SDS_P1;SDS_P2;PMS_P1;PMS_P2;Temp;Humidity;BMP_temperature;BMP_pressure;BME280_temperature;BME280_humidity;BME280_pressure;Samples;Min_cycle;Max_cycle;Signal;HPM_P1;HPM_P2
2023/03/16 00:02:11;;;;;;;0.17;0.17;;;;;;;;;;5087076;28;20032;-70
2023/03/16 00:04:37;;;;;;;1.60;1.27;;;;;;;;;;5087483;28;20031;-73
2023/03/16 00:07:06;;;;;;;0.10;0.10;;;;;;;;;;5087855;28;20032;-70
2023/03/16 00:09:32;;;;;;;0.10;0.10;;;;;;;;;;5083471;28;20024;-71
2023/03/16 00:11:58;;;;;;;0.10;0.10;;;;;;;;;;5088251;28;20816;-73
2023/03/16 00:14:24;;;;;;;0.10;0.10;;;;;;;;;;5087083;28;20036;-69
2023/03/16 00:16:50;;;;;;;0.10;0.10;;;;;;;;;;5090124;28;20040;-71
2023/03/16 00:19:15;;;;;;;0.10;0.10;;;;;;;;;;5092520;28;20462;-70
2023/03/16 00:21:42;;;;;;;0.20;0.20;;;;;;;;;;5091958;28;20467;-69
2023/03/16 00:24:07;;;;;;;0.20;0.20;;;;;;;;;;5092186;28;20032;-70
2023/03/16 00:26:33;;;;;;;0.10;0.10;;;;;;;;;;5096350;28;20449;-70
2023/03/16 00:28:58;;;;;;;0.10;0.10;;;;;;;;;;5095377;28;20555;-70
2023/03/16 00:31:24;;;;;;;0.10;0.10;;;;;;;;;;5078401;28;20090;-70
2023/03/16 00:33:49;;;;;;;0.10;0.10;;;;;;;;;;5096320;28;20115;-71
2023/03/16 00:36:15;;;;;;;0.10;0.10;;;;;;;;;;5095040;28;20040;-70
2023/03/16 00:38:44;;;;;;;0.10;0.10;;;;;;;;;;5086364;28;20071;-72
2023/03/16 00:41:13;;;;;;;1.08;1.08;;;;;;;;;;5076741;28;20048;-70
2023/03/16 00:43:43;;;;;;;;;;;;;;;;;;5060259;28;20017;-70
2023/03/16 00:46:09;;;;;;;;;;;;;;;;;;5077203;28;20276;-70
2023/03/16 00:48:35;;;;;;;0.03;0.03;;;;;;;;;;5075283;28;19916;-70
2023/03/16 00:51:05;;;;;;;0.10;0.10;;;;;;;;;;5076435;28;20033;-71
2023/03/16 00:53:35;;;;;;;0.10;0.10;;;;;;;;;;5061624;28;20021;-70
2023/03/16 00:56:04;;;;;;;0.10;0.10;;;;;;;;;;5075190;28;20086;-71
2023/03/16 00:58:34;;;;;;;0.13;0.13;;;;;;;;;;5075295;28;20040;-71
2023/03/16 01:01:12;;;;;;;0.10;0.10;;;;;;;;;;5075288;28;20040;-70
2023/03/16 01:03:38;;;;;;;0.10;0.10;;;;;;;;;;5076212;28;20485;-70
2023/03/16 01:06:09;;;;;;;0.10;0.10;;;;;;;;;;5075124;28;20037;-69
2023/03/16 01:08:35;;;;;;;0.10;0.10;;;;;;;;;;5058567;28;20384;-70
2023/03/16 01:11:09;;;;;;;0.10;0.10;;;;;;;;;;5076223;28;20032;-70
2023/03/16 01:13:34;;;;;;;0.10;0.10;;;;;;;;;;5058382;28;20032;-70
2023/03/16 01:16:00;;;;;;;0.20;0.20;;;;;;;;;;5074748;28;20047;-70
2023/03/16 01:18:26;;;;;;;0.10;0.10;;;;;;;;;;5081724;28;20522;-70
2023/03/16 01:20:52;;;;;;;0.10;0.10;;;;;;;;;;5076761;28;20037;-71
2023/03/16 01:23:18;;;;;;;0.10;0.10;;;;;;;;;;5087822;28;20031;-70
2023/03/16 01:25:51;;;;;;;0.10;0.10;;;;;;;;;;5078153;28;20032;-70
2023/03/16 01:28:18;;;;;;;0.10;0.10;;;;;;;;;;5095049;28;20075;-70
2023/03/16 01:30:44;;;;;;;0.10;0.10;;;;;;;;;;5094665;28;20044;-70
2023/03/16 01:33:10;;;;;;;0.10;0.10;;;;;;;;;;5094873;28;20077;-71
2023/03/16 01:35:35;;;;;;;0.10;0.10;;;;;;;;;;5095959;28;20375;-71
2023/03/16 01:38:02;;;;;;;0.17;0.17;;;;;;;;;;5076689;28;20028;-70
2023/03/16 01:40:30;;;;;;;0.10;0.10;;;;;;;;;;5094691;28;20032;-70
2023/03/16 01:43:00;;;;;;;0.10;0.10;;;;;;;;;;5095890;28;20032;-71
2023/03/16 01:45:46;;;;;;;0.20;0.20;;;;;;;;;;5077697;28;20032;-70
2023/03/16 01:48:12;;;;;;;0.20;0.20;;;;;;;;;;5094577;28;20119;-70
2023/03/16 01:50:37;;;;;;;0.20;0.20;;;;;;;;;;5094265;28;20460;-70
2023/03/16 01:53:03;;;;;;;0.10;0.10;;;;;;;;;;5073512;28;20036;-71
2023/03/16 01:55:28;;;;;;;0.20;0.20;;;;;;;;;;5075532;28;20033;-70
2023/03/16 01:57:54;;;;;;;0.10;0.10;;;;;;;;;;5082881;28;20437;-71
2023/03/16 02:00:28;;;;;;;0.22;0.22;;;;;;;;;;5077495;28;20040;-70
2023/03/16 02:03:16;;;;;;;0.10;0.10;;;;;;;;;;5076432;28;20976;-71
2023/03/16 02:05:53;;;;;;;0.20;0.20;;;;;;;;;;5094156;28;20028;-70
2023/03/16 02:08:21;;;;;;;0.10;0.10;;;;;;;;;;5093954;28;20190;-71
2023/03/16 02:10:47;;;;;;;0.10;0.10;;;;;;;;;;5094241;28;20031;-71
2023/03/16 02:13:13;;;;;;;0.10;0.10;;;;;;;;;;5093986;28;20391;-69
2023/03/16 02:15:38;;;;;;;0.10;0.10;;;;;;;;;;5094092;28;20032;-69
2023/03/16 02:18:06;;;;;;;0.20;0.20;;;;;;;;;;5094095;28;20118;-70
2023/03/16 02:20:41;;;;;;;0.30;0.30;;;;;;;;;;5077380;28;20032;-69
2023/03/16 02:23:08;;;;;;;0.20;0.20;;;;;;;;;;5092313;28;20110;-68
2023/03/16 02:25:50;;;;;;;0.10;0.10;;;;;;;;;;5076823;28;20548;-68
2023/03/16 02:28:22;;;;;;;0.10;0.10;;;;;;;;;;5076760;28;20043;-68
2023/03/16 02:30:47;;;;;;;0.10;0.10;;;;;;;;;;5094993;28;20046;-68
2023/03/16 02:33:14;;;;;;;0.10;0.10;;;;;;;;;;5093509;28;20106;-69
2023/03/16 02:35:42;;;;;;;0.40;0.30;;;;;;;;;;5076975;28;20044;-67
2023/03/16 02:38:07;;;;;;;0.20;0.20;;;;;;;;;;5093684;28;20046;-67
2023/03/16 02:40:42;;;;;;;0.10;0.10;;;;;;;;;;5076591;28;20081;-70
2023/03/16 02:43:15;;;;;;;0.10;0.10;;;;;;;;;;5094431;28;20089;-70
2023/03/16 02:45:50;;;;;;;0.10;0.10;;;;;;;;;;5093882;28;20394;-71
2023/03/16 02:48:35;;;;;;;0.10;0.10;;;;;;;;;;5094503;28;20098;-68
2023/03/16 02:51:01;;;;;;;0.20;0.20;;;;;;;;;;5092836;28;20093;-69
2023/03/16 02:53:26;;;;;;;0.10;0.10;;;;;;;;;;5093455;28;20074;-69
2023/03/16 02:55:53;;;;;;;0.20;0.20;;;;;;;;;;5093150;28;20024;-70
2023/03/16 02:58:19;;;;;;;0.10;0.10;;;;;;;;;;5076279;28;20039;-69
2023/03/16 03:00:45;;;;;;;0.10;0.10;;;;;;;;;;5093091;28;20514;-69
2023/03/16 03:03:14;;;;;;;0.10;0.10;;;;;;;;;;5076640;28;20036;-70
2023/03/16 03:05:39;;;;;;;0.20;0.20;;;;;;;;;;5093150;28;20153;-69
2023/03/16 03:08:05;;;;;;;0.20;0.20;;;;;;;;;;5077814;28;20586;-69
2023/03/16 03:10:31;;;;;;;0.10;0.10;;;;;;;;;;5072735;28;20097;-70
2023/03/16 03:12:56;;;;;;;0.30;0.30;;;;;;;;;;5055946;28;20494;-69
2023/03/16 03:15:22;;;;;;;0.10;0.10;;;;;;;;;;5055995;28;20560;-71
2023/03/16 03:17:57;;;;;;;0.10;0.10;;;;;;;;;;5057031;28;20075;-70
2023/03/16 03:20:23;;;;;;;0.10;0.10;;;;;;;;;;5072137;28;20388;-70
2023/03/16 03:22:51;;;;;;;0.17;0.17;;;;;;;;;;5086002;28;20038;-70
2023/03/16 03:25:17;;;;;;;0.68;0.30;;;;;;;;;;5075877;28;20039;-69
2023/03/16 03:27:43;;;;;;;0.10;0.10;;;;;;;;;;5075549;28;20491;-70
2023/03/16 03:30:13;;;;;;;0.13;0.13;;;;;;;;;;5092601;28;20036;-69
2023/03/16 03:32:39;;;;;;;0.20;0.20;;;;;;;;;;5092712;28;20047;-69
2023/03/16 03:35:05;;;;;;;0.10;0.10;;;;;;;;;;5092497;28;20124;-70
2023/03/16 03:37:31;;;;;;;0.43;0.28;;;;;;;;;;5092319;28;20032;-70
2023/03/16 03:39:57;;;;;;;0.10;0.10;;;;;;;;;;5075957;28;20478;-70
2023/03/16 03:42:23;;;;;;;0.08;0.08;;;;;;;;;;5092539;28;20028;-70
2023/03/16 03:44:52;;;;;;;0.20;0.20;;;;;;;;;;5076002;28;20479;-70
2023/03/16 03:47:18;;;;;;;0.20;0.20;;;;;;;;;;5092617;28;20036;-70
2023/03/16 03:49:44;;;;;;;0.10;0.10;;;;;;;;;;5092462;28;20046;-70
2023/03/16 03:52:10;;;;;;;0.20;0.20;;;;;;;;;;5074308;28;20040;-70
2023/03/16 03:54:35;;;;;;;0.10;0.10;;;;;;;;;;5092257;28;20039;-70
2023/03/16 03:57:05;;;;;;;0.10;0.10;;;;;;;;;;5092483;28;20075;-70
2023/03/16 03:59:31;;;;;;;0.10;0.10;;;;;;;;;;5092582;28;20517;-70
2023/03/16 04:02:09;;;;;;;0.10;0.10;;;;;;;;;;5090066;28;20036;-71
2023/03/16 04:04:42;;;;;;;0.10;0.10;;;;;;;;;;5079910;28;20032;-70
2023/03/16 04:07:10;;;;;;;0.10;0.10;;;;;;;;;;5069400;28;20487;-71
2023/03/16 04:09:35;;;;;;;0.20;0.20;;;;;;;;;;5085675;28;20085;-72
2023/03/16 04:12:02;;;;;;;0.13;0.13;;;;;;;;;;5051608;28;20040;-71
2023/03/16 04:14:28;;;;;;;0.10;0.10;;;;;;;;;;5087638;28;20028;-71
2023/03/16 04:16:54;;;;;;;0.10;0.10;;;;;;;;;;5086319;28;20031;-70
2023/03/16 04:19:23;;;;;;;0.10;0.10;;;;;;;;;;5087563;28;20036;-73
2023/03/16 04:21:50;;;;;;;0.17;0.17;;;;;;;;;;5068572;28;20036;-71
2023/03/16 04:24:17;;;;;;;0.20;0.20;;;;;;;;;;5085911;28;20506;-72
2023/03/16 04:26:44;;;;;;;0.10;0.10;;;;;;;;;;5085986;28;20036;-71
2023/03/16 04:29:11;;;;;;;0.10;0.10;;;;;;;;;;5087303;28;20106;-72
2023/03/16 04:31:37;;;;;;;0.10;0.10;;;;;;;;;;5087228;28;20036;-72
2023/03/16 04:34:03;;;;;;;0.10;0.10;;;;;;;;;;5069986;28;20468;-72
2023/03/16 04:36:28;;;;;;;0.17;0.17;;;;;;;;;;5088278;28;20059;-71
2023/03/16 04:38:54;;;;;;;0.10;0.10;;;;;;;;;;5071078;28;20035;-71
2023/03/16 04:41:21;;;;;;;0.20;0.20;;;;;;;;;;5087601;28;20115;-73
2023/03/16 04:43:56;;;;;;;0.20;0.20;;;;;;;;;;5086813;28;20514;-71
2023/03/16 04:46:23;;;;;;;0.10;0.10;;;;;;;;;;5087892;28;20056;-69
2023/03/16 04:48:49;;;;;;;0.20;0.20;;;;;;;;;;5070927;28;20120;-69
2023/03/16 04:51:14;;;;;;;0.10;0.10;;;;;;;;;;5087642;28;20570;-70
2023/03/16 04:53:47;;;;;;;0.10;0.10;;;;;;;;;;5070776;28;20028;-70
2023/03/16 04:56:24;;;;;;;0.17;0.17;;;;;;;;;;5087819;28;20028;-70
2023/03/16 04:58:59;;;;;;;0.10;0.10;;;;;;;;;;5088965;28;20043;-71
2023/03/16 05:01:28;;;;;;;0.10;0.10;;;;;;;;;;5070697;28;20063;-70
2023/03/16 05:03:57;;;;;;;0.15;0.15;;;;;;;;;;5078892;28;20113;-70
2023/03/16 05:06:23;;;;;;;0.10;0.10;;;;;;;;;;5067232;28;20064;-71
2023/03/16 05:08:48;;;;;;;0.20;0.20;;;;;;;;;;5067131;28;20047;-70
2023/03/16 05:11:14;;;;;;;0.20;0.20;;;;;;;;;;5070021;28;20068;-71
2023/03/16 05:13:48;;;;;;;0.20;0.20;;;;;;;;;;5087727;28;20124;-72
2023/03/16 05:16:14;;;;;;;0.20;0.20;;;;;;;;;;5091055;28;20122;-75
2023/03/16 05:18:40;;;;;;;0.10;0.10;;;;;;;;;;5090884;28;20083;-71
2023/03/16 05:21:06;;;;;;;0.13;0.13;;;;;;;;;;5090934;28;20109;-73
2023/03/16 05:23:45;;;;;;;0.10;0.10;;;;;;;;;;5090674;28;20036;-70
2023/03/16 05:26:12;;;;;;;0.10;0.10;;;;;;;;;;5091397;28;20105;-71
2023/03/16 05:28:37;;;;;;;0.10;0.10;;;;;;;;;;5090658;28;20067;-71
2023/03/16 05:31:05;;;;;;;0.10;0.10;;;;;;;;;;5090496;28;20035;-71
2023/03/16 05:33:37;;;;;;;0.10;0.10;;;;;;;;;;5091947;28;20034;-69
2023/03/16 05:36:06;;;;;;;0.15;0.15;;;;;;;;;;5091575;28;20122;-71
2023/03/16 05:38:35;;;;;;;0.10;0.10;;;;;;;;;;5073671;28;20086;-70
2023/03/16 05:41:03;;;;;;;0.10;0.10;;;;;;;;;;5086230;28;20020;-71
2023/03/16 05:43:54;;;;;;;1.95;1.85;;;;;;;;;;5090832;28;20040;-70
2023/03/16 05:46:23;;;;;;;0.20;0.20;;;;;;;;;;5090355;28;20036;-70
2023/03/16 05:48:50;;;;;;;0.20;0.20;;;;;;;;;;5089918;28;20831;-71
2023/03/16 05:51:17;;;;;;;0.10;0.10;;;;;;;;;;5090152;28;20032;-71
2023/03/16 05:53:45;;;;;;;0.10;0.10;;;;;;;;;;5090249;28;20040;-70
2023/03/16 05:56:16;;;;;;;0.10;0.10;;;;;;;;;;5090681;28;20039;-71
2023/03/16 05:58:44;;;;;;;0.10;0.10;;;;;;;;;;5089590;28;20035;-70
2023/03/16 06:01:11;;;;;;;0.10;0.10;;;;;;;;;;5088164;28;20399;-72
2023/03/16 06:03:38;;;;;;;0.10;0.10;;;;;;;;;;5090533;28;20028;-70
2023/03/16 06:06:06;;;;;;;0.13;0.13;;;;;;;;;;5090192;28;20415;-70
2023/03/16 06:08:39;;;;;;;0.22;0.22;;;;;;;;;;5074047;28;20028;-71
2023/03/16 06:11:08;;;;;;;0.13;0.13;;;;;;;;;;5071896;28;20042;-71
2023/03/16 06:13:34;;;;;;;0.10;0.10;;;;;;;;;;5086129;28;20068;-71
2023/03/16 06:16:00;;;;;;;0.10;0.10;;;;;;;;;;5081057;28;20533;-72
2023/03/16 06:18:26;;;;;;;0.10;0.10;;;;;;;;;;5091121;28;20414;-72
2023/03/16 06:20:52;;;;;;;0.10;0.10;;;;;;;;;;5089342;28;20100;-71
2023/03/16 06:23:20;;;;;;;0.28;0.28;;;;;;;;;;5072082;28;20035;-72
2023/03/16 06:25:46;;;;;;;0.50;0.50;;;;;;;;;;5082905;28;20029;-71
2023/03/16 06:28:12;;;;;;;0.28;0.28;;;;;;;;;;5075633;28;20032;-71
2023/03/16 06:30:38;;;;;;;0.10;0.10;;;;;;;;;;5069366;28;20029;-71
2023/03/16 06:33:03;;;;;;;0.10;0.10;;;;;;;;;;5069225;28;20032;-72
2023/03/16 06:35:29;;;;;;;0.10;0.10;;;;;;;;;;5068975;28;20024;-71
2023/03/16 06:38:21;;;;;;;0.10;0.10;;;;;;;;;;5069369;28;20086;-71
2023/03/16 06:41:07;;;;;;;0.75;0.75;;;;;;;;;;5067329;28;20041;-71
2023/03/16 06:43:34;;;;;;;0.30;0.30;;;;;;;;;;5069023;28;20032;-71
2023/03/16 06:46:00;;;;;;;1.85;1.55;;;;;;;;;;5069011;28;20036;-71
2023/03/16 06:48:26;;;;;;;0.80;0.45;;;;;;;;;;5070185;28;20048;-73
2023/03/16 06:50:51;;;;;;;0.88;0.88;;;;;;;;;;5052936;28;20032;-69
2023/03/16 06:53:24;;;;;;;0.47;0.47;;;;;;;;;;5071145;28;20043;-71
2023/03/16 06:55:50;;;;;;;0.20;0.20;;;;;;;;;;5080610;28;20113;-75
2023/03/16 06:58:16;;;;;;;0.10;0.10;;;;;;;;;;5089046;28;20066;-71
2023/03/16 07:00:43;;;;;;;0.20;0.20;;;;;;;;;;5089341;28;20040;-71
2023/03/16 07:03:08;;;;;;;0.20;0.20;;;;;;;;;;5090361;28;20050;-71
2023/03/16 07:05:35;;;;;;;0.40;0.40;;;;;;;;;;5070985;28;20115;-71
2023/03/16 07:08:03;;;;;;;0.70;0.70;;;;;;;;;;5088643;28;20479;-70
2023/03/16 07:10:29;;;;;;;1.13;1.13;;;;;;;;;;5088568;28;20131;-71
2023/03/16 07:12:54;;;;;;;0.22;0.22;;;;;;;;;;5083917;28;20127;-73
2023/03/16 07:15:20;;;;;;;0.15;0.15;;;;;;;;;;5075218;28;20043;-70
2023/03/16 07:17:46;;;;;;;0.10;0.10;;;;;;;;;;5088541;28;20192;-72
2023/03/16 07:20:12;;;;;;;0.13;0.13;;;;;;;;;;5087762;28;20130;-70
2023/03/16 07:22:38;;;;;;;0.10;0.10;;;;;;;;;;5088796;28;20123;-70
2023/03/16 07:25:07;;;;;;;0.43;0.32;;;;;;;;;;5071791;28;20410;-70
2023/03/16 07:27:32;;;;;;;0.20;0.20;;;;;;;;;;5088618;28;20121;-71
2023/03/16 07:30:03;;;;;;;0.10;0.10;;;;;;;;;;5072315;28;20044;-72
2023/03/16 07:32:31;;;;;;;0.10;0.10;;;;;;;;;;5088095;28;20286;-71
2023/03/16 07:34:57;;;;;;;3.75;0.82;;;;;;;;;;5088717;28;20499;-71
2023/03/16 07:37:24;;;;;;;0.10;0.10;;;;;;;;;;5088584;28;20535;-70
2023/03/16 07:39:50;;;;;;;0.10;0.10;;;;;;;;;;5089785;28;20055;-71
2023/03/16 07:42:18;;;;;;;0.10;0.10;;;;;;;;;;5087739;28;20032;-69
2023/03/16 07:44:58;;;;;;;0.10;0.10;;;;;;;;;;5073630;28;20027;-71
2023/03/16 07:47:24;;;;;;;0.17;0.17;;;;;;;;;;5089644;28;20081;-71
2023/03/16 07:49:54;;;;;;;0.10;0.10;;;;;;;;;;5081786;28;20484;-72
2023/03/16 07:52:19;;;;;;;0.10;0.10;;;;;;;;;;5079057;28;20111;-71
2023/03/16 07:54:47;;;;;;;0.10;0.10;;;;;;;;;;5060541;28;20028;-72
2023/03/16 07:57:13;;;;;;;0.10;0.10;;;;;;;;;;5067639;28;20521;-72
2023/03/16 07:59:41;;;;;;;0.10;0.10;;;;;;;;;;5068107;28;20032;-71
2023/03/16 08:02:12;;;;;;;0.10;0.10;;;;;;;;;;5068345;28;20100;-71
2023/03/16 08:04:42;;;;;;;0.20;0.20;;;;;;;;;;5067859;28;20495;-70
2023/03/16 08:07:08;;;;;;;0.10;0.10;;;;;;;;;;5087047;28;20376;-70
2023/03/16 08:09:52;;;;;;;0.10;0.10;;;;;;;;;;5088125;28;20081;-71
2023/03/16 08:12:23;;;;;;;0.20;0.20;;;;;;;;;;5087618;28;20668;-71
2023/03/16 08:14:48;;;;;;;0.10;0.10;;;;;;;;;;5087458;28;20028;-72
2023/03/16 08:17:20;;;;;;;0.10;0.10;;;;;;;;;;5085144;28;20040;-76
2023/03/16 08:19:47;;;;;;;0.20;0.20;;;;;;;;;;5080831;28;20928;-75
2023/03/16 08:22:13;;;;;;;0.10;0.10;;;;;;;;;;5080847;28;20377;-75
2023/03/16 08:24:42;;;;;;;0.10;0.10;;;;;;;;;;5069609;28;20029;-76
2023/03/16 08:27:10;;;;;;;0.10;0.10;;;;;;;;;;5068355;28;20032;-76
2023/03/16 08:29:39;;;;;;;;;;;;;;;;;;5068330;28;20040;-77
2023/03/16 08:32:06;;;;;;;0.10;0.10;;;;;;;;;;5079954;28;20011;-76
2023/03/16 08:34:38;;;;;;;0.10;0.10;;;;;;;;;;5088799;28;20036;-77
2023/03/16 08:37:05;;;;;;;0.10;0.10;;;;;;;;;;5076132;28;20127;-76
2023/03/16 08:39:32;;;;;;;0.10;0.10;;;;;;;;;;5069233;28;20118;-77
2023/03/16 08:42:03;;;;;;;0.10;0.10;;;;;;;;;;5065128;28;20029;-76
2023/03/16 08:44:41;;;;;;;0.30;0.30;;;;;;;;;;5087066;28;20039;-76
2023/03/16 08:47:06;;;;;;;0.10;0.10;;;;;;;;;;5091654;28;20436;-76
2023/03/16 08:49:34;;;;;;;0.10;0.10;;;;;;;;;;5072039;28;20070;-77
2023/03/16 08:52:11;;;;;;;0.10;0.10;;;;;;;;;;5092007;28;20032;-76
2023/03/16 08:54:37;;;;;;;0.10;0.10;;;;;;;;;;5091745;28;20062;-74
2023/03/16 08:57:03;;;;;;;0.10;0.10;;;;;;;;;;5091497;28;20028;-75
2023/03/16 08:59:28;;;;;;;0.10;0.10;;;;;;;;;;5092466;28;20451;-76
2023/03/16 09:01:54;;;;;;;0.10;0.10;;;;;;;;;;5090983;28;20032;-75
2023/03/16 09:04:20;;;;;;;0.10;0.10;;;;;;;;;;5092403;28;20108;-76
2023/03/16 09:06:46;;;;;;;0.10;0.10;;;;;;;;;;5092644;28;20500;-76
2023/03/16 09:09:12;;;;;;;0.10;0.10;;;;;;;;;;5089219;28;20044;-77
2023/03/16 09:11:37;;;;;;;0.17;0.17;;;;;;;;;;5081409;28;20047;-76
2023/03/16 09:14:03;;;;;;;0.10;0.10;;;;;;;;;;5087360;28;20035;-74
2023/03/16 09:16:29;;;;;;;0.10;0.10;;;;;;;;;;5091791;28;20032;-75
2023/03/16 09:18:55;;;;;;;0.20;0.20;;;;;;;;;;5091900;28;20031;-74
2023/03/16 09:21:20;;;;;;;0.40;0.40;;;;;;;;;;5091687;28;20375;-76
2023/03/16 09:23:46;;;;;;;0.28;0.28;;;;;;;;;;5091766;28;20036;-75
2023/03/16 09:26:12;;;;;;;0.95;0.20;;;;;;;;;;5092172;28;20016;-75
2023/03/16 09:28:39;;;;;;;0.20;0.20;;;;;;;;;;5090927;28;20027;-75
2023/03/16 09:31:06;;;;;;;0.10;0.10;;;;;;;;;;5091696;28;20119;-74
2023/03/16 09:33:32;;;;;;;0.20;0.20;;;;;;;;;;5091007;28;20115;-75
2023/03/16 09:35:58;;;;;;;0.20;0.20;;;;;;;;;;5091678;28;20024;-75
2023/03/16 09:38:27;;;;;;;0.17;0.17;;;;;;;;;;5091930;28;20495;-75
2023/03/16 09:40:57;;;;;;;0.22;0.22;;;;;;;;;;5090233;28;20036;-75
2023/03/16 09:43:35;;;;;;;0.52;0.38;;;;;;;;;;5091666;28;20411;-75
2023/03/16 09:46:27;;;;;;;0.10;0.10;;;;;;;;;;5090728;28;20134;-75
2023/03/16 09:48:53;;;;;;;0.20;0.20;;;;;;;;;;5091863;28;20444;-76
2023/03/16 09:51:22;;;;;;;0.20;0.20;;;;;;;;;;5091363;28;20039;-74
2023/03/16 09:53:50;;;;;;;0.75;0.43;;;;;;;;;;5092011;28;20035;-73
2023/03/16 09:56:19;;;;;;;0.47;0.40;;;;;;;;;;5092034;28;20056;-74
2023/03/16 09:58:44;;;;;;;0.20;0.20;;;;;;;;;;5089876;28;20487;-76
2023/03/16 10:01:13;;;;;;;0.10;0.10;;;;;;;;;;5090132;28;20031;-75
2023/03/16 10:03:49;;;;;;;0.17;0.17;;;;;;;;;;5079089;28;20032;-75
2023/03/16 10:06:15;;;;;;;0.10;0.10;;;;;;;;;;5072908;28;20119;-75
2023/03/16 10:08:44;;;;;;;0.10;0.10;;;;;;;;;;5086644;28;20475;-76
2023/03/16 10:11:31;;;;;;;0.20;0.20;;;;;;;;;;5091372;28;20062;-75
2023/03/16 10:14:00;;;;;;;0.20;0.20;;;;;;;;;;5087918;28;20043;-76
2023/03/16 10:16:38;;;;;;;0.20;0.20;;;;;;;;;;5092248;28;20127;-75
2023/03/16 10:19:10;;;;;;;0.43;0.35;;;;;;;;;;5089377;28;20036;-75
2023/03/16 10:21:38;;;;;;;0.20;0.20;;;;;;;;;;5088533;28;20028;-75
2023/03/16 10:24:04;;;;;;;8.10;0.30;;;;;;;;;;5070882;28;20754;-75
2023/03/16 10:26:38;;;;;;;0.10;0.10;;;;;;;;;;5089481;28;20056;-75
2023/03/16 10:29:08;;;;;;;0.10;0.10;;;;;;;;;;5087811;28;20032;-76
2023/03/16 10:31:34;;;;;;;0.10;0.10;;;;;;;;;;5088824;28;20510;-75
2023/03/16 10:34:03;;;;;;;0.20;0.20;;;;;;;;;;5087808;28;20044;-76
2023/03/16 10:36:30;;;;;;;0.20;0.20;;;;;;;;;;5087667;28;20085;-75
2023/03/16 10:38:58;;;;;;;0.20;0.20;;;;;;;;;;5089783;28;20042;-76
2023/03/16 10:41:26;;;;;;;0.13;0.13;;;;;;;;;;5090775;28;20104;-75
2023/03/16 10:43:54;;;;;;;0.10;0.10;;;;;;;;;;5091108;28;20535;-75
2023/03/16 10:46:21;;;;;;;0.10;0.10;;;;;;;;;;5090724;28;20065;-75
2023/03/16 10:48:58;;;;;;;0.10;0.10;;;;;;;;;;5089073;28;20043;-75
2023/03/16 10:51:25;;;;;;;0.10;0.10;;;;;;;;;;5090049;28;20035;-75
2023/03/16 10:53:50;;;;;;;0.10;0.10;;;;;;;;;;5090751;28;20024;-75
2023/03/16 10:56:24;;;;;;;1.35;0.40;;;;;;;;;;5090590;28;20482;-76
2023/03/16 10:58:50;;;;;;;0.57;0.40;;;;;;;;;;5090682;28;20028;-75
2023/03/16 11:01:25;;;;;;;0.10;0.10;;;;;;;;;;5089125;28;20650;-75
2023/03/16 11:03:54;;;;;;;0.20;0.20;;;;;;;;;;5090976;28;20058;-76
2023/03/16 11:06:24;;;;;;;0.10;0.10;;;;;;;;;;5091296;28;20107;-75
2023/03/16 11:08:50;;;;;;;0.20;0.20;;;;;;;;;;5090337;28;20046;-75
2023/03/16 11:11:17;;;;;;;0.10;0.10;;;;;;;;;;5089133;28;20161;-75
2023/03/16 11:13:44;;;;;;;0.10;0.10;;;;;;;;;;5089224;28;20024;-75
2023/03/16 11:16:12;;;;;;;1.50;0.40;;;;;;;;;;5088790;28;20048;-75
2023/03/16 11:18:43;;;;;;;0.70;0.40;;;;;;;;;;5090175;28;20066;-75
2023/03/16 11:21:18;;;;;;;0.35;0.25;;;;;;;;;;5088969;28;20035;-77
2023/03/16 11:23:48;;;;;;;0.10;0.10;;;;;;;;;;5090309;28;20024;-76
2023/03/16 11:26:24;;;;;;;1.40;1.17;;;;;;;;;;5089003;28;20036;-76
2023/03/16 11:28:55;;;;;;;0.20;0.20;;;;;;;;;;5090256;28;20048;-76
2023/03/16 11:31:41;;;;;;;0.20;0.20;;;;;;;;;;5090446;28;20130;-75
2023/03/16 11:34:18;;;;;;;0.10;0.10;;;;;;;;;;5089988;28;20028;-77
2023/03/16 11:36:48;;;;;;;0.10;0.10;;;;;;;;;;5089962;28;20391;-76
2023/03/16 11:39:13;;;;;;;0.20;0.20;;;;;;;;;;5089592;28;20075;-76
2023/03/16 11:41:47;;;;;;;0.45;0.20;;;;;;;;;;5089759;28;20058;-76
2023/03/16 11:44:19;;;;;;;0.10;0.10;;;;;;;;;;5090231;28;20032;-75
2023/03/16 11:46:48;;;;;;;0.20;0.20;;;;;;;;;;5085281;28;20108;-76
2023/03/16 11:49:16;;;;;;;1.73;1.55;;;;;;;;;;5086586;28;20040;-75
2023/03/16 11:51:41;;;;;;;0.20;0.20;;;;;;;;;;5083965;28;20043;-76
2023/03/16 11:54:25;;;;;;;0.47;0.40;;;;;;;;;;5087601;28;20030;-76
2023/03/16 11:57:01;;;;;;;0.20;0.20;;;;;;;;;;5087553;28;20040;-75
2023/03/16 11:59:39;;;;;;;0.10;0.10;;;;;;;;;;5087431;28;20028;-75
2023/03/16 12:02:07;;;;;;;0.10;0.10;;;;;;;;;;5085837;28;20127;-75
2023/03/16 12:04:37;;;;;;;1.48;0.43;;;;;;;;;;5088746;28;20027;-76
2023/03/16 12:07:23;;;;;;;4.50;0.40;;;;;;;;;;5069824;28;20034;-75
2023/03/16 12:09:56;;;;;;;0.10;0.10;;;;;;;;;;5087435;28;20582;-75
2023/03/16 12:12:22;;;;;;;0.20;0.20;;;;;;;;;;5089005;28;20039;-75
2023/03/16 12:15:02;;;;;;;1.80;0.90;;;;;;;;;;5088071;28;20024;-75
2023/03/16 12:17:32;;;;;;;0.60;0.20;;;;;;;;;;5087290;28;20036;-75
2023/03/16 12:20:16;;;;;;;0.40;0.30;;;;;;;;;;5087125;28;20068;-76
2023/03/16 12:22:52;;;;;;;0.17;0.17;;;;;;;;;;5090313;28;20040;-76
2023/03/16 12:25:19;;;;;;;0.30;0.30;;;;;;;;;;5092660;28;20081;-76
2023/03/16 12:27:46;;;;;;;0.52;0.20;;;;;;;;;;5092089;28;20024;-76
2023/03/16 12:30:24;;;;;;;0.20;0.20;;;;;;;;;;5092540;28;20044;-75
2023/03/16 12:32:54;;;;;;;0.50;0.40;;;;;;;;;;5091133;28;20089;-76
2023/03/16 12:35:27;;;;;;;1.90;0.70;;;;;;;;;;5089351;28;20554;-76
2023/03/16 12:37:53;;;;;;;0.17;0.17;;;;;;;;;;5089572;28;20030;-76
2023/03/16 12:40:35;;;;;;;0.17;0.17;;;;;;;;;;5089428;28;20737;-76
2023/03/16 12:43:23;;;;;;;0.13;0.13;;;;;;;;;;5089869;28;20024;-75
2023/03/16 12:46:01;;;;;;;0.17;0.17;;;;;;;;;;5090850;28;20040;-76
2023/03/16 12:48:29;;;;;;;0.20;0.20;;;;;;;;;;5092177;28;20032;-76
2023/03/16 12:50:59;;;;;;;3.83;0.63;;;;;;;;;;5093498;28;20036;-76
2023/03/16 12:53:37;;;;;;;1.27;1.17;;;;;;;;;;5091976;28;20055;-76
2023/03/16 12:56:04;;;;;;;0.60;0.32;;;;;;;;;;5091523;28;20039;-76
2023/03/16 12:58:30;;;;;;;0.30;0.25;;;;;;;;;;5092808;28;20043;-75
2023/03/16 13:00:58;;;;;;;0.60;0.40;;;;;;;;;;5074715;28;20032;-76
2023/03/16 13:03:24;;;;;;;2.55;0.50;;;;;;;;;;5091722;28;20376;-76
2023/03/16 13:05:51;;;;;;;0.25;0.25;;;;;;;;;;5092997;28;20047;-75
2023/03/16 13:08:17;;;;;;;0.22;0.20;;;;;;;;;;5091561;28;20441;-76
2023/03/16 13:11:02;;;;;;;0.32;0.32;;;;;;;;;;5091721;28;20085;-76
2023/03/16 13:13:27;;;;;;;1.40;0.40;;;;;;;;;;5091022;28;20032;-74
2023/03/16 13:16:04;;;;;;;0.28;0.25;;;;;;;;;;5092771;28;20038;-75
2023/03/16 13:18:34;;;;;;;0.10;0.10;;;;;;;;;;5092851;28;20040;-75
2023/03/16 13:21:12;;;;;;;1.25;0.32;;;;;;;;;;5092370;28;20224;-75
2023/03/16 13:23:57;;;;;;;0.10;0.10;;;;;;;;;;5091089;28;20040;-75
2023/03/16 13:26:38;;;;;;;3.15;0.60;;;;;;;;;;5091254;28;20077;-74
2023/03/16 13:29:15;;;;;;;1.15;1.15;;;;;;;;;;5092259;28;20047;-75
2023/03/16 13:31:40;;;;;;;0.60;0.20;;;;;;;;;;5091950;28;20067;-75
2023/03/16 13:34:10;;;;;;;0.22;0.20;;;;;;;;;;5091938;28;20071;-75
2023/03/16 13:36:36;;;;;;;0.10;0.10;;;;;;;;;;5092110;28;20052;-75
2023/03/16 13:39:03;;;;;;;1.23;0.52;;;;;;;;;;5091260;28;20121;-75
2023/03/16 13:41:29;;;;;;;2.90;0.43;;;;;;;;;;5090673;28;20039;-75
2023/03/16 13:43:54;;;;;;;0.20;0.20;;;;;;;;;;5091194;28;20040;-75
2023/03/16 13:46:21;;;;;;;1.45;0.40;;;;;;;;;;5092336;28;20039;-75
2023/03/16 13:48:47;;;;;;;1.10;0.43;;;;;;;;;;5091780;28;20040;-75
2023/03/16 13:51:17;;;;;;;11.65;2.25;;;;;;;;;;5087902;28;20111;-75
2023/03/16 13:53:43;;;;;;;0.45;0.30;;;;;;;;;;5089897;28;20036;-75
2023/03/16 13:56:12;;;;;;;0.80;0.40;;;;;;;;;;5091694;28;20170;-75
2023/03/16 13:58:39;;;;;;;0.30;0.20;;;;;;;;;;5090110;28;20471;-75
2023/03/16 14:01:11;;;;;;;2.88;0.95;;;;;;;;;;5089140;28;20110;-75
2023/03/16 14:03:38;;;;;;;0.20;0.20;;;;;;;;;;5072104;28;20032;-75
2023/03/16 14:06:05;;;;;;;0.45;0.15;;;;;;;;;;5091402;28;20062;-75
2023/03/16 14:08:31;;;;;;;1.17;0.35;;;;;;;;;;5089949;28;20028;-75
2023/03/16 14:10:57;;;;;;;1.60;0.38;;;;;;;;;;5091679;28;20036;-74
2023/03/16 14:13:31;;;;;;;1.05;0.40;;;;;;;;;;5089274;28;20475;-75
2023/03/16 14:16:01;;;;;;;0.13;0.13;;;;;;;;;;5089281;28;20043;-76
2023/03/16 14:18:32;;;;;;;1.33;1.23;;;;;;;;;;5089317;28;20040;-75
2023/03/16 14:20:58;;;;;;;2.13;0.50;;;;;;;;;;5089266;28;20036;-75
2023/03/16 14:23:24;;;;;;;0.40;0.20;;;;;;;;;;5089062;28;20111;-76
2023/03/16 14:25:52;;;;;;;1.90;0.32;;;;;;;;;;5089590;28;20050;-76
2023/03/16 14:28:19;;;;;;;2.17;0.35;;;;;;;;;;5090635;28;20520;-74
2023/03/16 14:30:52;;;;;;;0.20;0.20;;;;;;;;;;5091195;28;20039;-76
2023/03/16 14:33:26;;;;;;;1.30;0.50;;;;;;;;;;5089707;28;20039;-75
2023/03/16 14:35:56;;;;;;;0.10;0.10;;;;;;;;;;5091199;28;20032;-75
2023/03/16 14:38:22;;;;;;;0.25;0.20;;;;;;;;;;5091129;28;20479;-75
2023/03/16 14:40:52;;;;;;;2.33;1.23;;;;;;;;;;5090819;28;20067;-75
2023/03/16 14:43:20;;;;;;;0.25;0.25;;;;;;;;;;5088366;28;20036;-74
2023/03/16 14:45:46;;;;;;;0.50;0.35;;;;;;;;;;5090862;28;20024;-75
2023/03/16 14:48:15;;;;;;;3.20;0.38;;;;;;;;;;5090903;28;20103;-75
2023/03/16 14:50:41;;;;;;;0.10;0.10;;;;;;;;;;5089539;28;20035;-75
2023/03/16 14:53:08;;;;;;;0.40;0.30;;;;;;;;;;5090806;28;20062;-73
2023/03/16 14:55:35;;;;;;;1.75;0.55;;;;;;;;;;5090288;28;20391;-73